Flight Track Log - Related Links

Times and Time Zones

All times are in EDT time to prevent confusion due to time zone crossing. See the EJA727 flight status page for this flight to view local times or setup timezone preferences in your user account.


Time Position Orientation Groundspeed Altitude Reporting Facility
EDT Latitude Longitude Course Direction KTS MPH feet Rate Location/Type
Wed 09:38:20 AM 40.2722 -79.4728 31° Northeast 235 270 4,000  Level Cleveland Center
Wed 09:39:44 AM 40.3508 -79.4117 31° Northeast 281 323 5,100 561 Climbing Cleveland Center
Wed 09:40:39 AM 40.3856 -79.3292 61° Northeast 301 346 5,300 1,437 Climbing Cleveland Center
Wed 09:42:06 AM 40.4400 -79.1864 63° Northeast 297 342 8,500 2,735 Climbing Cleveland Center
Wed 09:43:06 AM 40.4825 -79.0844 61° Northeast 304 350 12,000 3,450 Climbing Cleveland Center
Wed 09:44:06 AM 40.5269 -78.9686 63° Northeast 324 373 15,400 3,200 Climbing Cleveland Center
Wed 09:45:06 AM 40.5772 -78.8444 62° Northeast 352 405 18,400 2,750 Climbing Cleveland Center
Wed 09:46:06 AM 40.6294 -78.7172 62° Northeast 371 427 20,900 2,300 Climbing Cleveland Center
Wed 09:47:06 AM 40.6814 -78.5817 63° Northeast 396 456 23,000 2,051 Climbing Cleveland Center
Wed 09:48:44 AM 40.7700 -78.3647 62° Northeast 441 507 26,300 1,937 Climbing New York Center
Wed 09:49:44 AM 40.8250 -78.2172 64° Northeast 441 507 28,100 1,350 Climbing New York Center
Wed 09:50:44 AM 40.8842 -78.0725 62° Northeast 441 507 29,000 450 Climbing New York Center
Wed 09:51:44 AM 40.9481 -77.9144 62° Northeast 460 529 29,000  Level New York Center
Wed 09:52:44 AM 41.0200 -77.7569 59° Northeast 481 554 29,000  Level New York Center
Wed 09:53:44 AM 41.1011 -77.5808 59° Northeast 488 562 29,000  Level New York Center
Wed 09:54:44 AM 41.1683 -77.4247 60° Northeast 498 573 29,000  Level New York Center
Wed 09:55:44 AM 41.2281 -77.2844 60° Northeast 492 566 29,000  Level New York Center
Wed 09:56:44 AM 41.2992 -77.1256 59° Northeast 487 560 29,000  Level New York Center
Wed 09:57:44 AM 41.3681 -76.9661 60° Northeast 487 560 29,000  Level New York Center
Wed 09:58:44 AM 41.4367 -76.8092 60° Northeast 487 560 29,000  Level New York Center
Wed 09:59:44 AM 41.5053 -76.6464 61° Northeast 487 560 29,000 -300 Level New York Center
Wed 10:00:44 AM 41.4933 -76.4625 95° East 472 543 28,400 -900 Descending New York Center
Wed 10:01:44 AM 41.4397 -76.2753 111° Southeast 474 545 27,200 -1,200 Descending New York Center
Wed 10:02:44 AM 41.3822 -76.0742 111° Southeast 500 575 26,000 -1,150 Descending New York Center
Wed 10:03:44 AM 41.3297 -75.8961 111° Southeast 512 589 24,900 -1,100 Descending New York Center
Wed 10:04:44 AM 41.2789 -75.7156 110° East 518 596 23,800 -950 Descending New York Center
Wed 10:05:44 AM 41.2217 -75.5403 113° Southeast 523 602 23,000 -750 Descending New York Center
Wed 10:06:44 AM 41.1639 -75.3625 113° Southeast 523 602 22,300 -900 Descending New York Center
Wed 10:07:44 AM 41.1039 -75.1933 115° Southeast 517 595 21,200 -650 Descending New York Center
Wed 10:08:44 AM 41.0475 -75.0244 114° Southeast 511 588 21,000 -100 Descending New York Center
Wed 10:09:44 AM 41.0008 -74.8703 112° Southeast 500 575 21,000 -300 Level New York Center
Wed 10:10:44 AM 40.9775 -74.6958 100° East 490 564 20,400 -950 Descending New York Center
Wed 10:11:44 AM 40.9583 -74.5244 98° East 466 536 19,100 -700 Descending New York Center
Wed 10:12:44 AM 40.9433 -74.3972 99° East 409 471 19,000 -59 Descending New York Center
Wed 10:13:25 AM 40.9333 -74.2833 97° East 391 450 19,000  Level New York TRACON
Wed 10:14:31 AM 40.9000 -74.1167 105° East 431 496 19,000 -286 Level New York TRACON
Wed 10:15:31 AM 40.8333 -73.9833 123° Southeast 417 480 18,400 -1,263 Descending New York TRACON
Wed 10:16:25 AM 40.7833 -73.8833 123° Southeast 382 440 16,600 -2,053 Descending New York TRACON
Wed 10:17:25 AM 40.7167 -73.7833 131° Southeast 354 407 14,500 -2,100 Descending New York TRACON
Wed 10:18:25 AM 40.6667 -73.6833 123° Southeast 319 367 12,400 -2,810 Descending New York TRACON
Wed 10:19:31 AM 40.6167 -73.5833 123° Southeast 289 333 8,600 -3,095 Descending New York TRACON
Wed 10:20:31 AM 40.5667 -73.5167 135° Southeast 267 307 5,900 -2,550 Descending New York TRACON
Wed 10:21:31 AM 40.5500 -73.4333 105° East 231 266 3,500 -1,950 Descending New York TRACON
Wed 10:22:31 AM 40.6167 -73.4167 11° North 207 238 2,000 -1,100 Descending New York TRACON
Wed 10:23:31 AM 40.6500 -73.4167 360° North 160 184 1,300 -700 Descending New York TRACON
Wed 10:24:31 AM 40.7000 -73.4167 360° North 148 170 600 6,746 Descending New York TRACON
Wed 10:26:44 AM 40.7842 -73.4186 359° North 149 171 23,000 10,105 Climbing New York Center
Wed 10:28:00 AM 40.7288 -73.4134 49° Northeast  Level Estimated

Login

Don't have an account? Register now (free) for customized features, flight alerts, and more!